Natoma, Kansas
Current Conditions -  °F | °C
As of 3:53 PM on Tuesday 25 Nov 2014 (Local Time) from KRSL Reporting Station
Overcast Overcast  
Wind Chill: 44°   Ceiling: 9500
Heat Index: 49°   Visibility: 10mi
Dew Point: 18°   Wind: 14mph
Humidity: 29%   Direction: 200°SSW
Pressure: 29.94"   Gusts: 21mph
Location:  39.19°N, 99.03°W
Report Text: KRSL 252153Z AUTO 20012G18KT 10SM OVC095 09/M08 A2994 RMK AO2 SLP151 T00941078
Loading
Personal Weather Stations






























Interactive Weather Map New forecast layout! Learn more

10-Day Weather Forecast

Advertisements
Track Severe Weather on mobile